Terminal Aerodrome Forecast
Issued by NWS St Louis, MO

Home | Current Version | Previous Version | Text Only | Print | Product List | Glossary On
Versions: 1 2 3 4 5 6 7 8 9 10 11 12 13 14 15
646
FTUS43 KLSX 221129
TAFCOU
TAF
KCOU 221129Z 2212/2312 07009KT P6SM -SHRA OVC045
     FM221700 07013G19KT P6SM VCSH OVC035
     FM230300 05012KT P6SM VCSH OVC040
     FM230500 05011G17KT P6SM OVC035
     FM230600 05011G18KT P6SM OVC030=

USA.gov is the U.S. government's official web portal to all federal, state and local government web resources and services.